Time;durP1;ratioP1;P1;durP2;ratioP2;P2;SDS_P1;SDS_P2;PMS_P1;PMS_P2;Temp;Humidity;BMP_temperature;BMP_pressure;BME280_temperature;BME280_humidity;BME280_pressure;Samples;Min_cycle;Max_cycle;Signal;HPM_P1;HPM_P2
2021/12/28 00:00:23;;;;;;;18.38;4.25;;;;;;;16.71;53.83;99284.84;5095046;28;20030;-58
2021/12/28 00:02:50;;;;;;;14.40;3.03;;;;;;;16.70;53.09;99277.75;5094995;28;20031;-59
2021/12/28 00:05:16;;;;;;;23.58;4.88;;;;;;;16.74;53.25;99289.00;5076840;28;20024;-58
2021/12/28 00:07:42;;;;;;;11.38;3.08;;;;;;;16.76;52.32;99279.63;5094719;28;20027;-58
2021/12/28 00:10:10;;;;;;;16.73;3.25;;;;;;;16.77;53.41;99275.91;5094594;28;20028;-59
2021/12/28 00:12:37;;;;;;;8.93;2.25;;;;;;;16.79;52.56;99273.81;5094653;28;20376;-58
2021/12/28 00:15:33;;;;;;;16.05;3.63;;;;;;;16.81;52.72;99266.31;5094018;28;20024;-59
2021/12/28 00:18:00;;;;;;;18.85;2.80;;;;;;;16.86;53.45;99265.72;5094447;28;20360;-58
2021/12/28 00:20:34;;;;;;;16.50;2.55;;;;;;;16.89;52.68;99262.56;5094542;28;20089;-58
2021/12/28 00:23:02;;;;;;;13.18;3.00;;;;;;;16.89;52.99;99265.25;5094363;28;20020;-58
2021/12/28 00:25:28;;;;;;;15.00;2.42;;;;;;;16.93;52.23;99265.69;5094569;28;20396;-58
2021/12/28 00:27:53;;;;;;;7.80;1.65;;;;;;;16.93;52.32;99262.97;5094718;28;20051;-59
2021/12/28 00:30:19;;;;;;;11.80;2.63;;;;;;;16.93;52.81;99257.56;5094448;28;20073;-58
2021/12/28 00:32:47;;;;;;;12.00;2.42;;;;;;;16.92;51.91;99251.31;5094408;28;20468;-58
2021/12/28 00:35:12;;;;;;;13.85;3.00;;;;;;;16.91;52.11;99251.56;5076183;28;20028;-59
2021/12/28 00:37:38;;;;;;;14.60;2.15;;;;;;;16.93;52.28;99254.88;5094393;28;20409;-58
2021/12/28 00:40:05;;;;;;;13.77;2.58;;;;;;;16.92;51.89;99253.22;5094155;28;20024;-58
2021/12/28 00:42:30;;;;;;;18.92;2.47;;;;;;;16.92;52.34;99247.81;5094313;28;20031;-58
2021/12/28 00:44:55;;;;;;;13.52;2.88;;;;;;;16.89;52.19;99244.47;5094450;28;20032;-58
2021/12/28 00:47:21;;;;;;;32.13;3.92;;;;;;;16.84;52.55;99233.44;5094316;28;20024;-58
2021/12/28 00:49:46;;;;;;;9.63;2.03;;;;;;;16.84;52.34;99230.75;5076210;28;20471;-59
2021/12/28 00:52:11;;;;;;;15.43;3.60;;;;;;;16.82;52.43;99232.84;5094311;28;20051;-59
2021/12/28 00:54:37;;;;;;;12.30;2.25;;;;;;;16.80;51.40;99229.50;5076148;28;20032;-59
2021/12/28 00:57:02;;;;;;;14.57;2.30;;;;;;;16.78;51.78;99222.63;5094157;28;20030;-58
2021/12/28 00:59:28;;;;;;;18.02;3.55;;;;;;;16.77;51.83;99238.03;5093892;28;20027;-58
2021/12/28 01:01:54;;;;;;;11.52;2.28;;;;;;;16.75;52.05;99229.28;5093667;28;20099;-58
2021/12/28 01:04:19;;;;;;;15.93;2.40;;;;;;;16.73;52.43;99228.66;5093960;28;20082;-58
2021/12/28 01:06:45;;;;;;;16.27;3.50;;;;;;;16.75;52.65;99225.78;5094001;28;20062;-58
2021/12/28 01:09:10;;;;;;;11.95;3.05;;;;;;;16.75;52.24;99221.16;5093561;28;20073;-58
2021/12/28 01:11:35;;;;;;;12.75;2.50;;;;;;;16.79;52.79;99225.13;5099920;28;20369;-58
2021/12/28 01:14:01;;;;;;;19.67;2.58;;;;;;;16.81;52.30;99222.22;5092859;28;20032;-58
2021/12/28 01:16:27;;;;;;;18.63;2.97;;;;;;;16.82;51.96;99224.72;5071901;28;20536;-58
2021/12/28 01:18:53;;;;;;;14.75;2.55;;;;;;;16.83;51.80;99218.25;5074680;28;20020;-58
2021/12/28 01:21:19;;;;;;;17.75;2.67;;;;;;;16.80;51.77;99204.34;5092427;28;20032;-58
2021/12/28 01:23:44;;;;;;;6.97;1.95;;;;;;;16.84;52.77;99209.09;5092784;28;20032;-59
2021/12/28 01:26:09;;;;;;;29.02;4.28;;;;;;;16.86;51.95;99209.72;5073523;28;20111;-58
2021/12/28 01:28:35;;;;;;;17.13;2.88;;;;;;;16.83;51.80;99210.13;5076247;28;20130;-58
2021/12/28 01:31:00;;;;;;;11.60;1.67;;;;;;;16.85;52.10;99209.94;5075984;28;20370;-58
2021/12/28 01:33:26;;;;;;;19.35;2.65;;;;;;;16.84;52.17;99210.97;5075903;28;20083;-58
2021/12/28 01:35:51;;;;;;;14.48;2.20;;;;;;;16.81;52.52;99206.81;5057880;28;20110;-59
2021/12/28 01:38:17;;;;;;;20.05;2.58;;;;;;;16.80;52.28;99199.75;5075867;28;20020;-59
2021/12/28 01:40:43;;;;;;;11.98;2.70;;;;;;;16.79;52.78;99214.31;5075633;28;20119;-58
2021/12/28 01:43:19;;;;;;;14.90;2.88;;;;;;;16.78;52.17;99200.97;5075537;28;20028;-58
2021/12/28 01:46:02;;;;;;;11.60;3.15;;;;;;;16.79;51.63;99206.19;5058128;28;20024;-59
2021/12/28 01:48:30;;;;;;;14.80;2.28;;;;;;;16.80;52.24;99202.47;5072762;28;20035;-59
2021/12/28 01:50:59;;;;;;;13.65;2.17;;;;;;;16.82;52.85;99208.50;5058197;28;20024;-58
2021/12/28 01:53:25;;;;;;;23.25;3.10;;;;;;;16.85;52.00;99209.94;5075750;28;20024;-58
2021/12/28 01:55:54;;;;;;;14.70;1.77;;;;;;;16.88;52.86;99202.25;5075365;28;20028;-58
2021/12/28 01:58:20;;;;;;;5.50;1.40;;;;;;;16.91;52.53;99192.03;5075668;28;20103;-59
2021/12/28 02:00:48;;;;;;;6.25;2.22;;;;;;;16.91;52.55;99190.19;5075431;28;20108;-58
2021/12/28 02:03:16;;;;;;;15.93;2.42;;;;;;;16.96;51.40;99192.25;5075580;28;20036;-58
2021/12/28 02:05:42;;;;;;;15.35;2.08;;;;;;;16.98;52.98;99190.97;5075441;28;20037;-58
2021/12/28 02:08:08;;;;;;;20.90;2.25;;;;;;;16.99;51.41;99194.53;5057811;28;20035;-58
2021/12/28 02:10:35;;;;;;;13.18;2.08;;;;;;;16.99;52.30;99198.06;5075667;28;20023;-59
2021/12/28 02:13:01;;;;;;;10.07;1.98;;;;;;;17.01;52.80;99200.56;5075372;28;20012;-58
2021/12/28 02:15:27;;;;;;;7.35;1.60;;;;;;;17.02;52.70;99196.81;5075475;28;20115;-58
2021/12/28 02:17:52;;;;;;;9.13;2.05;;;;;;;17.04;51.61;99194.72;5075419;28;20039;-58
2021/12/28 02:20:19;;;;;;;10.77;1.85;;;;;;;17.03;52.60;99198.50;5075308;28;20032;-58
2021/12/28 02:22:44;;;;;;;7.57;1.95;;;;;;;17.04;51.68;99189.31;5074969;28;20031;-59
2021/12/28 02:25:11;;;;;;;12.20;2.17;;;;;;;17.08;52.63;99185.16;5075215;28;20107;-58
2021/12/28 02:27:37;;;;;;;12.30;2.28;;;;;;;17.09;51.94;99181.38;5070779;28;20508;-58
2021/12/28 02:30:12;;;;;;;16.58;2.00;;;;;;;17.12;52.25;99175.56;5095355;28;20112;-59
2021/12/28 02:32:39;;;;;;;10.35;2.28;;;;;;;17.13;52.24;99179.94;5077335;28;20023;-58
2021/12/28 02:35:07;;;;;;;15.52;1.63;;;;;;;17.15;52.55;99180.53;5077171;28;20024;-58
2021/12/28 02:37:33;;;;;;;15.38;2.45;;;;;;;17.16;52.50;99182.22;5076364;28;20024;-58
2021/12/28 02:39:59;;;;;;;14.93;1.90;;;;;;;17.16;53.01;99185.75;5077103;28;20028;-59
2021/12/28 02:42:24;;;;;;;14.60;2.28;;;;;;;17.15;52.14;99178.69;5076850;28;20028;-59
2021/12/28 02:45:07;;;;;;;12.65;3.00;;;;;;;17.16;51.55;99182.22;5095191;28;20507;-58
2021/12/28 02:47:33;;;;;;;;;;;;;;;17.18;51.68;99180.13;5078294;28;20040;-58
2021/12/28 02:49:59;;;;;;;10.27;1.73;;;;;;;17.18;51.84;99180.13;5095177;28;19912;-58
2021/12/28 02:52:24;;;;;;;9.68;1.85;;;;;;;17.17;52.21;99183.91;5095575;28;20496;-58
2021/12/28 02:54:50;;;;;;;11.57;2.15;;;;;;;17.14;52.22;99179.72;5095737;28;20504;-59
2021/12/28 02:57:15;;;;;;;8.55;1.80;;;;;;;17.14;52.06;99173.50;5095429;28;20024;-59
2021/12/28 02:59:48;;;;;;;7.57;1.40;;;;;;;17.13;51.33;99167.25;5095078;28;20027;-58
2021/12/28 03:02:14;;;;;;;9.45;2.20;;;;;;;17.17;52.72;99156.84;5095114;28;20024;-58
2021/12/28 03:04:40;;;;;;;7.78;1.45;;;;;;;17.15;51.83;99158.91;5095228;28;20441;-58
2021/12/28 03:07:05;;;;;;;6.97;1.60;;;;;;;17.18;52.21;99158.47;5095146;28;20490;-58
2021/12/28 03:09:31;;;;;;;7.15;1.40;;;;;;;17.19;51.57;99157.44;5077696;28;20103;-58
2021/12/28 03:11:56;;;;;;;10.35;1.27;;;;;;;17.20;52.24;99161.78;5095711;28;20111;-57
2021/12/28 03:14:21;;;;;;;6.18;1.33;;;;;;;17.20;52.24;99150.97;5096007;28;20024;-58
2021/12/28 03:16:47;;;;;;;6.68;0.80;;;;;;;17.21;52.71;99147.22;5095649;28;20032;-58
2021/12/28 03:19:12;;;;;;;5.57;1.10;;;;;;;17.22;51.66;99143.50;5095811;28;20460;-58
2021/12/28 03:21:38;;;;;;;6.80;1.63;;;;;;;17.22;51.89;99141.63;5095685;28;20103;-58
2021/12/28 03:24:04;;;;;;;6.13;1.55;;;;;;;17.22;51.65;99143.50;5095752;28;20149;-58
2021/12/28 03:26:30;;;;;;;9.07;1.60;;;;;;;17.19;51.76;99139.34;5095294;28;20118;-57
2021/12/28 03:28:55;;;;;;;8.82;1.45;;;;;;;17.20;50.72;99135.56;5095885;28;20049;-58
2021/12/28 03:31:22;;;;;;;4.28;0.98;;;;;;;17.20;51.92;99135.56;5077335;28;20547;-58
2021/12/28 03:33:50;;;;;;;3.58;0.93;;;;;;;17.18;51.79;99128.72;5060653;28;20036;-58
2021/12/28 03:36:17;;;;;;;5.00;1.02;;;;;;;17.16;52.48;99118.13;5095233;28;20027;-57
2021/12/28 03:38:43;;;;;;;5.07;0.68;;;;;;;17.12;51.92;99122.28;5094939;28;20020;-58
2021/12/28 03:41:10;;;;;;;6.43;1.33;;;;;;;17.15;51.73;99121.00;5095316;28;20480;-58
2021/12/28 03:43:38;;;;;;;3.50;0.70;;;;;;;17.15;51.34;99121.00;5095243;28;20392;-58
2021/12/28 03:46:04;;;;;;;10.10;0.98;;;;;;;17.15;50.86;99126.44;5095131;28;20024;-58
2021/12/28 03:48:30;;;;;;;11.15;1.15;;;;;;;17.16;51.33;99119.97;5094825;28;20028;-58
2021/12/28 03:50:55;;;;;;;6.43;1.17;;;;;;;17.15;51.52;99110.19;5095134;28;20024;-58
2021/12/28 03:53:21;;;;;;;6.20;0.98;;;;;;;17.17;51.74;99108.13;5095092;28;20542;-58
2021/12/28 03:55:46;;;;;;;4.82;1.00;;;;;;;17.14;51.89;99103.94;5094985;28;20028;-58
2021/12/28 03:58:12;;;;;;;9.13;1.08;;;;;;;17.19;51.90;99100.63;5095269;28;20052;-58
2021/12/28 04:00:42;;;;;;;2.25;0.47;;;;;;;17.19;52.00;99095.22;5095105;28;20043;-58
2021/12/28 04:03:08;;;;;;;5.53;0.73;;;;;;;17.19;51.39;99089.78;5095214;28;20439;-58
2021/12/28 04:05:34;;;;;;;3.72;0.50;;;;;;;17.21;51.61;99093.09;5094921;28;20020;-58
2021/12/28 04:07:59;;;;;;;3.58;1.05;;;;;;;17.20;52.24;99091.44;5094894;28;20107;-58
2021/12/28 04:10:31;;;;;;;1.70;0.60;;;;;;;17.19;51.25;99084.38;5094810;28;20417;-58
2021/12/28 04:12:57;;;;;;;5.82;0.40;;;;;;;17.21;52.28;99082.28;5095202;28;20028;-58
2021/12/28 04:15:23;;;;;;;7.65;0.73;;;;;;;17.22;51.44;99081.25;5095051;28;20024;-58
2021/12/28 04:17:48;;;;;;;6.18;0.70;;;;;;;17.24;51.44;99079.16;5076686;28;20061;-58
2021/12/28 04:20:16;;;;;;;6.20;0.95;;;;;;;17.23;51.42;99080.19;5094734;28;20091;-58
2021/12/28 04:22:42;;;;;;;3.65;0.80;;;;;;;17.21;51.04;99082.28;5076372;28;20033;-58
2021/12/28 04:25:08;;;;;;;3.97;0.63;;;;;;;17.24;51.28;99081.84;5076057;28;20081;-58
2021/12/28 04:27:34;;;;;;;2.88;0.70;;;;;;;17.23;51.48;99085.59;5076027;28;20048;-58
2021/12/28 04:30:00;;;;;;;6.32;1.90;;;;;;;17.23;51.12;99091.00;5094820;28;20412;-58
2021/12/28 04:32:25;;;;;;;3.35;1.00;;;;;;;17.25;51.90;99088.94;5094445;28;20024;-59
2021/12/28 04:34:51;;;;;;;3.67;1.15;;;;;;;17.21;51.32;99085.00;5094453;28;20392;-59
2021/12/28 04:37:16;;;;;;;5.47;0.98;;;;;;;17.28;50.48;99085.81;5094482;28;20474;-59
2021/12/28 04:39:42;;;;;;;2.33;0.80;;;;;;;17.27;50.86;99081.44;5094684;28;20020;-59
2021/12/28 04:42:07;;;;;;;4.35;1.08;;;;;;;17.26;51.51;99083.31;5094319;28;20123;-58
2021/12/28 04:44:32;;;;;;;3.25;1.60;;;;;;;17.26;50.86;99082.47;5076230;28;20039;-58
2021/12/28 04:46:58;;;;;;;2.25;0.43;;;;;;;17.26;51.29;99090.59;5094481;28;20034;-58
2021/12/28 04:49:26;;;;;;;5.97;0.75;;;;;;;17.25;51.47;99088.94;5093994;28;20024;-58
2021/12/28 04:51:51;;;;;;;1.50;0.90;;;;;;;17.27;51.16;99081.44;5094532;28;20070;-58
2021/12/28 04:54:18;;;;;;;1.60;0.50;;;;;;;17.23;51.64;99074.78;5094441;28;20111;-58
2021/12/28 04:56:43;;;;;;;3.90;0.75;;;;;;;17.26;51.09;99088.72;5076381;28;20098;-59
2021/12/28 04:59:08;;;;;;;3.60;0.80;;;;;;;17.25;51.63;99088.94;5076591;28;20058;-59
2021/12/28 05:01:36;;;;;;;2.75;0.55;;;;;;;17.25;51.20;99087.03;5096063;28;20024;-58
2021/12/28 05:04:03;;;;;;;2.00;0.47;;;;;;;17.23;51.58;99080.19;5098273;28;20107;-59
2021/12/28 05:06:29;;;;;;;6.00;0.65;;;;;;;17.23;50.93;99081.03;5080610;28;20024;-58
2021/12/28 05:08:54;;;;;;;2.70;0.52;;;;;;;17.24;51.20;99074.56;5080483;28;20066;-58
2021/12/28 05:11:19;;;;;;;2.47;0.40;;;;;;;17.25;52.42;99084.34;5098004;28;20024;-59
2021/12/28 05:13:45;;;;;;;1.73;0.38;;;;;;;17.25;51.76;99076.22;5098464;28;20023;-58
2021/12/28 05:16:14;;;;;;;1.35;0.40;;;;;;;17.29;51.41;99084.75;5098472;28;20529;-59
2021/12/28 05:18:39;;;;;;;2.92;0.35;;;;;;;17.28;51.50;99083.09;5098609;28;20044;-58
2021/12/28 05:21:05;;;;;;;0.82;0.30;;;;;;;17.29;51.40;99091.00;5098132;28;20473;-58
2021/12/28 05:23:30;;;;;;;0.98;0.40;;;;;;;17.31;51.25;99086.19;5097994;28;20027;-58
2021/12/28 05:25:55;;;;;;;0.57;0.20;;;;;;;17.30;51.67;99076.44;5098203;28;20035;-58
2021/12/28 05:28:21;;;;;;;5.50;0.70;;;;;;;17.32;51.95;99076.19;5079583;28;20487;-58
2021/12/28 05:30:46;;;;;;;2.35;0.30;;;;;;;17.31;50.81;99077.22;5079875;28;20085;-59
2021/12/28 05:33:12;;;;;;;3.30;0.50;;;;;;;17.31;51.61;99075.38;5097826;28;20045;-58
2021/12/28 05:35:37;;;;;;;0.85;0.30;;;;;;;17.33;51.38;99075.16;5097703;28;20476;-58
2021/12/28 05:38:02;;;;;;;0.73;0.20;;;;;;;17.34;51.16;99065.97;5079697;28;20052;-58
2021/12/28 05:40:28;;;;;;;5.55;0.40;;;;;;;17.26;51.15;99058.09;5079265;28;20442;-59
2021/12/28 05:42:53;;;;;;;0.95;0.30;;;;;;;17.33;51.81;99069.75;5097861;28;20035;-58
2021/12/28 05:45:19;;;;;;;1.95;0.35;;;;;;;17.34;51.10;99065.97;5097626;28;20027;-58
2021/12/28 05:47:44;;;;;;;0.20;0.20;;;;;;;17.33;50.79;99059.75;5097642;28;20043;-61
2021/12/28 05:50:10;;;;;;;0.60;0.30;;;;;;;17.34;50.84;99060.56;5097595;28;20110;-58
2021/12/28 05:52:36;;;;;;;1.10;0.30;;;;;;;17.34;51.69;99065.97;5096990;28;20024;-59
2021/12/28 05:55:03;;;;;;;0.85;0.43;;;;;;;17.32;51.39;99057.25;5079241;28;20023;-59
2021/12/28 05:57:30;;;;;;;1.08;0.35;;;;;;;17.36;50.73;99069.31;5097301;28;20119;-58
2021/12/28 05:59:55;;;;;;;2.08;0.60;;;;;;;17.36;51.62;99063.91;5097385;28;20020;-58
2021/12/28 06:02:21;;;;;;;3.63;0.77;;;;;;;17.37;50.83;99062.84;5096927;28;20106;-58
2021/12/28 06:04:46;;;;;;;3.78;1.58;;;;;;;17.37;51.18;99060.97;5097160;28;20057;-58
2021/12/28 06:07:11;;;;;;;2.25;1.13;;;;;;;17.39;50.86;99068.91;5097140;28;20024;-59
2021/12/28 06:09:37;;;;;;;2.97;0.73;;;;;;;17.39;51.69;99074.31;5097073;28;20069;-59
2021/12/28 06:12:02;;;;;;;3.20;0.80;;;;;;;17.40;51.06;99070.53;5096995;28;20085;-58
2021/12/28 06:14:28;;;;;;;1.08;0.45;;;;;;;17.40;51.77;99074.06;5097192;28;20024;-58
2021/12/28 06:16:54;;;;;;;1.55;0.28;;;;;;;17.41;51.70;99077.63;5096938;28;20020;-58
2021/12/28 06:19:19;;;;;;;0.47;0.38;;;;;;;17.39;52.14;99072.41;5096992;28;20392;-59
2021/12/28 06:21:45;;;;;;;0.85;0.22;;;;;;;17.38;50.98;99078.03;5096860;28;20031;-59
2021/12/28 06:24:10;;;;;;;4.78;0.70;;;;;;;17.37;50.73;99070.97;5096903;28;20088;-58
2021/12/28 06:26:36;;;;;;;0.98;0.38;;;;;;;17.36;52.10;99069.31;5096708;28;20044;-58
2021/12/28 06:29:04;;;;;;;4.18;1.05;;;;;;;17.34;51.05;99066.81;5078647;28;20370;-59
2021/12/28 06:31:29;;;;;;;1.77;0.40;;;;;;;17.30;51.62;99051.22;5078661;28;20366;-58
2021/12/28 06:33:56;;;;;;;0.38;0.25;;;;;;;17.31;51.12;99050.16;5096366;28;20095;-58
2021/12/28 06:36:22;;;;;;;1.48;0.30;;;;;;;17.30;50.39;99048.53;5096375;28;20024;-59
2021/12/28 06:38:48;;;;;;;3.80;0.50;;;;;;;17.28;50.49;99042.50;5078112;28;20066;-58
2021/12/28 06:41:13;;;;;;;2.50;1.40;;;;;;;17.27;51.33;99043.53;5096181;28;20469;-58
2021/12/28 06:43:38;;;;;;;0.93;0.80;;;;;;;17.27;51.00;99040.84;5096391;28;20388;-58
2021/12/28 06:46:04;;;;;;;1.00;0.43;;;;;;;17.26;51.23;99039.16;5096401;28;20035;-59
2021/12/28 06:48:29;;;;;;;0.60;0.43;;;;;;;17.23;50.46;99036.88;5096413;28;20024;-59
2021/12/28 06:50:54;;;;;;;1.35;0.52;;;;;;;17.22;51.61;99046.06;5096686;28;20024;-58
2021/12/28 06:53:20;;;;;;;1.33;0.40;;;;;;;17.24;50.62;99049.38;5095915;28;20052;-59
2021/12/28 06:55:45;;;;;;;4.30;0.80;;;;;;;17.24;51.04;99043.97;5096296;28;20024;-58
2021/12/28 06:58:11;;;;;;;6.57;0.80;;;;;;;17.18;50.99;99048.38;5095755;28;20431;-58
2021/12/28 07:00:37;;;;;;;1.73;0.43;;;;;;;17.21;51.38;99055.22;5096204;28;20102;-59
2021/12/28 07:03:04;;;;;;;3.80;0.60;;;;;;;17.19;50.65;99047.34;5096030;28;20028;-59
2021/12/28 07:05:30;;;;;;;0.60;0.28;;;;;;;17.17;51.45;99043.19;5096108;28;20054;-58
2021/12/28 07:07:55;;;;;;;1.10;0.45;;;;;;;17.18;51.64;99055.66;5077934;28;20016;-58
2021/12/28 07:10:20;;;;;;;0.98;0.38;;;;;;;17.17;51.03;99054.81;5095577;28;20077;-59
2021/12/28 07:12:50;;;;;;;1.40;0.22;;;;;;;17.18;51.05;99051.06;5095541;28;20035;-58
2021/12/28 07:15:16;;;;;;;1.02;0.30;;;;;;;17.19;51.04;99054.63;5095921;28;20028;-58
2021/12/28 07:17:42;;;;;;;0.32;0.20;;;;;;;17.18;51.35;99055.66;5095799;28;20032;-59
2021/12/28 07:20:08;;;;;;;0.20;0.15;;;;;;;17.18;51.38;99061.91;5095892;28;20035;-58
2021/12/28 07:22:34;;;;;;;1.15;0.28;;;;;;;17.16;51.37;99069.41;5095282;28;20122;-58
2021/12/28 07:24:59;;;;;;;1.40;0.30;;;;;;;17.20;50.72;99064.38;5095260;28;20051;-59
2021/12/28 07:27:25;;;;;;;0.20;0.10;;;;;;;17.19;51.79;99060.03;5095600;28;20047;-59
2021/12/28 07:29:50;;;;;;;1.40;0.13;;;;;;;17.19;51.85;99055.47;5095518;28;20070;-58
2021/12/28 07:32:16;;;;;;;0.40;0.20;;;;;;;17.23;51.08;99064.78;5060681;28;20522;-58
2021/12/28 07:34:41;;;;;;;0.90;0.28;;;;;;;17.23;51.08;99061.25;5095478;28;20023;-58
2021/12/28 07:37:06;;;;;;;0.68;0.20;;;;;;;17.22;51.01;99057.72;5095641;28;20161;-59
2021/12/28 07:39:32;;;;;;;0.47;0.30;;;;;;;17.20;52.39;99057.09;5095084;28;20384;-58
2021/12/28 07:41:57;;;;;;;0.50;0.30;;;;;;;17.19;51.25;99052.75;5095410;28;20028;-58
2021/12/28 07:44:23;;;;;;;0.77;0.20;;;;;;;17.18;51.29;99061.06;5095537;28;20070;-59
2021/12/28 07:46:48;;;;;;;1.98;0.40;;;;;;;17.18;51.69;99063.78;5095270;28;20032;-59
2021/12/28 07:49:13;;;;;;;3.78;1.00;;;;;;;17.18;51.59;99056.50;5095075;28;20049;-58
2021/12/28 07:51:39;;;;;;;1.17;0.52;;;;;;;17.18;52.24;99055.66;5095089;28;20073;-58
2021/12/28 07:54:04;;;;;;;1.40;0.40;;;;;;;17.22;52.33;99060.44;5095195;28;20038;-58
2021/12/28 07:56:29;;;;;;;1.38;0.50;;;;;;;17.24;51.95;99065.63;5095106;28;20074;-59
2021/12/28 07:58:55;;;;;;;2.42;1.13;;;;;;;17.24;51.27;99060.22;5094829;28;20492;-58
2021/12/28 08:01:20;;;;;;;1.63;0.70;;;;;;;17.23;52.51;99058.53;5094799;28;20499;-58
2021/12/28 08:03:45;;;;;;;0.68;0.40;;;;;;;17.24;51.57;99060.22;5094555;28;20024;-59
2021/12/28 08:06:11;;;;;;;0.88;0.28;;;;;;;17.26;52.33;99052.69;5094391;28;20461;-58
2021/12/28 08:08:39;;;;;;;0.30;0.20;;;;;;;17.24;51.88;99054.78;5094867;28;20016;-58
2021/12/28 08:11:04;;;;;;;2.85;0.40;;;;;;;17.24;51.79;99054.78;5059797;28;20024;-59
2021/12/28 08:13:30;;;;;;;1.33;0.30;;;;;;;17.21;51.92;99055.22;5094656;28;20024;-58
2021/12/28 08:15:56;;;;;;;2.40;0.80;;;;;;;17.21;52.36;99056.06;5060115;28;20058;-58
2021/12/28 08:18:21;;;;;;;1.58;0.60;;;;;;;17.20;52.43;99048.97;5095039;28;20384;-58
2021/12/28 08:20:47;;;;;;;1.13;0.55;;;;;;;17.23;51.40;99053.13;5094758;28;20027;-59
2021/12/28 08:23:12;;;;;;;0.25;0.20;;;;;;;17.25;51.46;99051.06;5094498;28;20024;-58
2021/12/28 08:25:37;;;;;;;0.60;0.50;;;;;;;17.29;52.10;99063.09;5094569;28;20111;-58
2021/12/28 08:28:05;;;;;;;1.95;0.82;;;;;;;17.32;52.25;99052.69;5094456;28;20131;-58
2021/12/28 08:30:31;;;;;;;1.83;0.65;;;;;;;17.34;52.00;99052.44;5094777;28;20472;-58
2021/12/28 08:32:57;;;;;;;2.30;0.35;;;;;;;17.37;51.49;99049.31;5076457;28;20055;-58
2021/12/28 08:35:22;;;;;;;2.15;0.47;;;;;;;17.37;51.67;99041.19;5093719;28;20036;-59
2021/12/28 08:37:48;;;;;;;0.60;0.30;;;;;;;17.41;52.33;99054.09;5094305;28;20388;-59
2021/12/28 08:40:15;;;;;;;0.73;0.40;;;;;;;17.41;51.67;99045.13;5094483;28;20099;-59
2021/12/28 08:42:40;;;;;;;4.75;0.70;;;;;;;17.42;51.93;99049.47;5094601;28;20031;-58
2021/12/28 08:45:06;;;;;;;1.38;0.40;;;;;;;17.41;52.14;99045.13;5094097;28;20028;-58
2021/12/28 08:47:32;;;;;;;2.72;0.50;;;;;;;17.41;51.87;99045.13;5094271;28;20170;-58
2021/12/28 08:49:58;;;;;;;0.60;0.35;;;;;;;17.42;51.55;99050.31;5076113;28;20500;-58
2021/12/28 08:52:24;;;;;;;0.45;0.30;;;;;;;17.42;51.08;99038.66;5094267;28;20020;-58
2021/12/28 08:54:50;;;;;;;0.57;0.43;;;;;;;17.42;52.38;99041.38;5094154;28;20030;-59
2021/12/28 08:57:18;;;;;;;1.65;0.10;;;;;;;17.47;52.67;99049.69;5094292;28;20400;-59
2021/12/28 08:59:43;;;;;;;0.40;0.30;;;;;;;17.47;51.99;99049.69;5076190;28;20534;-58
2021/12/28 09:02:09;;;;;;;0.85;0.20;;;;;;;17.50;51.75;99062.78;5076072;28;20024;-59
2021/12/28 09:04:36;;;;;;;0.10;0.10;;;;;;;17.51;51.10;99048.19;5094395;28;20032;-59
2021/12/28 09:07:02;;;;;;;0.20;0.20;;;;;;;17.53;51.68;99048.00;5094036;28;20361;-58
2021/12/28 09:09:28;;;;;;;0.93;0.43;;;;;;;17.54;52.17;99055.91;5075676;28;20020;-59
2021/12/28 09:11:53;;;;;;;1.85;0.20;;;;;;;17.51;52.26;99045.47;5094111;28;20373;-58
2021/12/28 09:14:18;;;;;;;1.02;0.22;;;;;;;17.50;51.61;99049.25;5094041;28;20370;-59
2021/12/28 09:16:44;;;;;;;4.32;0.38;;;;;;;17.49;51.83;99047.59;5094183;28;20060;-58
2021/12/28 09:19:09;;;;;;;0.52;0.35;;;;;;;17.50;52.86;99051.97;5093677;28;20024;-58
2021/12/28 09:21:35;;;;;;;1.02;0.40;;;;;;;17.47;52.36;99041.56;5093763;28;20047;-59
2021/12/28 09:24:00;;;;;;;0.80;0.30;;;;;;;17.48;52.42;99046.75;5093982;28;20024;-58
2021/12/28 09:26:26;;;;;;;1.02;0.20;;;;;;;17.46;51.82;99042.59;5093911;28;20097;-59
2021/12/28 09:28:51;;;;;;;0.40;0.22;;;;;;;17.48;53.07;99043.22;5094206;28;20039;-59
2021/12/28 09:31:17;;;;;;;0.20;0.17;;;;;;;17.49;52.36;99042.16;5093908;28;20511;-59
2021/12/28 09:33:45;;;;;;;0.80;0.50;;;;;;;17.52;53.27;99039.03;5093627;28;20484;-58
2021/12/28 09:36:16;;;;;;;0.93;0.38;;;;;;;17.50;52.84;99037.59;5094040;28;20028;-58
2021/12/28 09:38:43;;;;;;;1.08;0.35;;;;;;;17.54;52.00;99036.97;5093960;28;20103;-58
2021/12/28 09:41:08;;;;;;;0.20;0.20;;;;;;;17.54;52.53;99033.41;5075922;28;20028;-59
2021/12/28 09:43:34;;;;;;;0.73;0.35;;;;;;;17.55;52.99;99035.91;5093077;28;20081;-59
2021/12/28 09:46:00;;;;;;;0.65;0.55;;;;;;;17.58;52.97;99030.06;5092591;28;20036;-58
2021/12/28 09:48:25;;;;;;;0.30;0.30;;;;;;;17.64;52.98;99026.50;5095231;28;20024;-59
2021/12/28 09:50:50;;;;;;;0.30;0.30;;;;;;;17.66;52.27;99035.22;5097428;28;20066;-58
2021/12/28 09:53:16;;;;;;;1.20;0.30;;;;;;;17.66;52.10;99018.97;5079638;28;20028;-59
2021/12/28 09:55:41;;;;;;;0.28;0.20;;;;;;;17.70;52.90;99022.88;5097664;28;20048;-58
2021/12/28 09:58:07;;;;;;;0.47;0.20;;;;;;;17.72;52.09;99019.97;5079576;28;20031;-58
2021/12/28 10:00:32;;;;;;;0.93;0.50;;;;;;;17.70;52.10;99025.59;5097396;28;20365;-58
2021/12/28 10:02:58;;;;;;;0.80;0.38;;;;;;;17.72;52.17;99019.97;5097908;28;20055;-58
2021/12/28 10:05:25;;;;;;;0.73;0.17;;;;;;;17.70;52.23;99012.06;5097517;28;20024;-59
2021/12/28 10:07:59;;;;;;;0.43;0.32;;;;;;;17.64;52.42;99004.00;5096449;28;20036;-58
2021/12/28 10:10:24;;;;;;;0.38;0.38;;;;;;;17.70;52.32;99008.53;5097298;28;20499;-58
2021/12/28 10:12:53;;;;;;;2.67;0.68;;;;;;;17.69;53.34;99005.00;5097410;28;20024;-59
2021/12/28 10:15:40;;;;;;;0.80;0.30;;;;;;;17.68;52.98;99005.22;5097462;28;20024;-59
2021/12/28 10:18:11;;;;;;;0.20;0.20;;;;;;;17.75;52.93;98996.00;5096906;28;20485;-58
2021/12/28 10:20:40;;;;;;;0.63;0.47;;;;;;;17.82;52.51;98994.06;5097309;28;20503;-59
2021/12/28 10:23:10;;;;;;;2.40;0.50;;;;;;;17.84;53.02;98986.53;5079211;28;20053;-58
2021/12/28 10:25:41;;;;;;;0.30;0.30;;;;;;;17.86;53.58;98970.91;5062618;28;20100;-58
2021/12/28 10:28:18;;;;;;;0.20;0.20;;;;;;;17.86;53.14;98970.91;5078697;28;20055;-59
2021/12/28 10:30:49;;;;;;;0.40;0.32;;;;;;;17.83;53.08;98963.22;5097362;28;20028;-59
2021/12/28 10:33:18;;;;;;;0.90;0.30;;;;;;;17.89;52.52;98951.50;5078868;28;20488;-58
2021/12/28 10:35:48;;;;;;;1.52;0.30;;;;;;;17.90;52.63;98953.16;5097020;28;20023;-58
2021/12/28 10:38:17;;;;;;;0.20;0.20;;;;;;;17.89;52.23;98940.66;5096820;28;20465;-59
2021/12/28 10:40:48;;;;;;;1.45;0.30;;;;;;;17.87;52.27;98941.91;5096827;28;20020;-58
2021/12/28 10:43:34;;;;;;;0.80;0.30;;;;;;;17.90;53.15;98936.88;5094926;28;20043;-58
2021/12/28 10:46:12;;;;;;;2.08;0.30;;;;;;;17.95;53.19;98934.34;5096595;28;20054;-58
2021/12/28 10:48:46;;;;;;;0.65;0.25;;;;;;;18.02;52.72;98940.53;5096584;28;20396;-59
2021/12/28 10:51:21;;;;;;;0.80;0.38;;;;;;;18.03;52.69;98935.94;5078961;28;20027;-59
2021/12/28 10:54:23;;;;;;;0.30;0.30;;;;;;;18.04;52.95;98933.00;5080086;28;20168;-59
2021/12/28 10:56:59;;;;;;;0.30;0.30;;;;;;;18.06;52.48;98935.50;5034394;28;20399;-58
2021/12/28 10:59:33;;;;;;;0.43;0.43;;;;;;;18.02;53.42;98940.53;5016953;28;20052;-59
2021/12/28 11:01:59;;;;;;;0.45;0.22;;;;;;;17.99;52.76;98940.97;5033928;28;20108;-59
2021/12/28 11:04:39;;;;;;;0.50;0.40;;;;;;;17.97;52.93;98937.66;5034120;28;20124;-58
2021/12/28 11:07:07;;;;;;;1.75;0.20;;;;;;;17.96;53.29;98929.75;5034049;28;20132;-58
2021/12/28 11:09:32;;;;;;;0.50;0.30;;;;;;;17.93;53.45;98936.44;5034149;28;20025;-58
2021/12/28 11:11:58;;;;;;;0.50;0.43;;;;;;;17.89;53.46;98929.84;5033913;28;20403;-58
2021/12/28 11:14:26;;;;;;;0.40;0.40;;;;;;;17.87;52.44;98914.81;5033906;28;20033;-58
2021/12/28 11:17:03;;;;;;;1.30;0.47;;;;;;;17.85;53.36;98919.66;5033688;28;20100;-58
2021/12/28 11:19:33;;;;;;;1.85;0.75;;;;;;;17.83;52.86;98909.03;5033590;28;20029;-58
2021/12/28 11:22:08;;;;;;;2.28;0.30;;;;;;;17.80;53.94;98900.53;5033647;28;20040;-58
2021/12/28 11:24:36;;;;;;;0.32;0.25;;;;;;;17.77;53.94;98888.25;5033807;28;20462;-58
2021/12/28 11:27:04;;;;;;;0.88;0.30;;;;;;;17.74;53.35;98894.13;5033566;28;20052;-59
2021/12/28 11:29:35;;;;;;;0.85;0.20;;;;;;;17.68;52.88;98910.41;5033603;28;20041;-60